createdAt,value
2023-02-15T00:02:27.524Z,43.53
2023-02-15T00:05:12.593Z,46.75
2023-02-15T00:07:57.448Z,54.45
2023-02-15T00:10:42.189Z,54.45
2023-02-15T00:13:26.974Z,53.90
2023-02-15T00:16:13.528Z,52.97
2023-02-15T00:19:02.577Z,54.05
2023-02-15T00:21:48.208Z,53.40
2023-02-15T00:24:33.321Z,53.58
2023-02-15T00:27:18.577Z,55.10
2023-02-15T00:30:04.054Z,52.05
2023-02-15T00:32:49.151Z,49.58
2023-02-15T00:35:34.335Z,44.63
2023-02-15T00:38:19.324Z,46.00
2023-02-15T00:41:06.429Z,47.15
2023-02-15T00:43:51.709Z,49.33
2023-02-15T00:46:37.301Z,44.50
2023-02-15T00:49:22.441Z,37.10
2023-02-15T00:52:07.351Z,37.90
2023-02-15T00:54:52.227Z,38.22
2023-02-15T00:57:37.134Z,38.67
2023-02-15T01:00:22.655Z,36.00
2023-02-15T01:03:08.104Z,35.20
2023-02-15T01:05:53.252Z,37.70
2023-02-15T01:08:39.070Z,35.75
2023-02-15T01:11:24.528Z,38.38
2023-02-15T01:14:09.422Z,34.95
2023-02-15T01:16:54.685Z,35.38
2023-02-15T01:19:39.944Z,35.17
2023-02-15T01:22:24.783Z,37.42
2023-02-15T01:25:10.042Z,42.50
2023-02-15T01:27:55.076Z,41.85
2023-02-15T01:30:40.464Z,45.97
2023-02-15T01:33:26.168Z,44.60
2023-02-15T01:36:11.363Z,43.42
2023-02-15T01:38:56.590Z,42.38
2023-02-15T01:41:41.575Z,40.72
2023-02-15T01:44:48.315Z,43.08
2023-02-15T01:47:41.822Z,44.42
2023-02-15T01:50:30.104Z,39.85
2023-02-15T01:53:26.514Z,41.30
2023-02-15T01:56:33.144Z,41.38
2023-02-15T01:59:22.931Z,43.67
2023-02-15T02:02:12.920Z,44.80
2023-02-15T02:07:47.572Z,41.45
2023-02-15T02:10:33.040Z,41.40
2023-02-15T02:13:18.326Z,40.58
2023-02-15T02:16:39.222Z,42.30
2023-02-15T02:19:27.171Z,38.67
2023-02-15T02:22:50.429Z,41.35
2023-02-15T02:25:53.683Z,38.92
2023-02-15T02:29:06.305Z,38.72
2023-02-15T02:32:18.669Z,35.15
2023-02-15T02:35:12.584Z,37.20
2023-02-15T02:38:21.678Z,35.13
2023-02-15T02:41:25.385Z,36.53
2023-02-15T02:44:25.789Z,35.00
2023-02-15T02:47:30.750Z,35.72
2023-02-15T02:50:29.186Z,35.22
2023-02-15T02:53:14.389Z,35.63
2023-02-15T02:56:12.982Z,38.35
2023-02-15T02:59:04.815Z,36.78
2023-02-15T03:02:00.996Z,37.85
2023-02-15T03:04:59.285Z,36.38
2023-02-15T03:07:49.460Z,38.08
2023-02-15T03:13:22.728Z,39.03
2023-02-15T03:16:28.661Z,40.03
2023-02-15T03:19:23.428Z,39.30
2023-02-15T03:22:21.436Z,39.75
2023-02-15T03:25:15.511Z,37.05
2023-02-15T03:28:07.356Z,39.05
2023-02-15T03:30:56.737Z,38.83
2023-02-15T03:33:46.471Z,39.20
2023-02-15T03:39:40.927Z,38.80
2023-02-15T03:42:37.103Z,38.30
2023-02-15T03:45:29.485Z,38.85
2023-02-15T03:48:14.730Z,38.38
2023-02-15T03:51:25.025Z,39.13
2023-02-15T03:54:46.954Z,37.63
2023-02-15T03:57:50.978Z,39.95
2023-02-15T04:00:58.297Z,37.67
2023-02-15T04:04:04.544Z,39.58
2023-02-15T04:06:49.766Z,41.35
2023-02-15T04:09:53.429Z,38.25
2023-02-15T04:12:38.532Z,39.80
2023-02-15T04:15:59.071Z,38.67
2023-02-15T04:19:03.175Z,37.35
2023-02-15T04:22:07.130Z,37.17
2023-02-15T04:25:10.395Z,37.88
2023-02-15T04:27:55.974Z,36.10
2023-02-15T04:30:40.804Z,37.05
2023-02-15T04:33:25.767Z,33.85
2023-02-15T04:36:10.519Z,35.83
2023-02-15T04:38:55.630Z,38.42
2023-02-15T04:41:40.743Z,38.05
2023-02-15T04:44:25.873Z,37.53
2023-02-15T04:47:10.961Z,37.80
2023-02-15T04:49:58.039Z,37.22
2023-02-15T04:52:43.545Z,37.38
2023-02-15T04:55:28.699Z,36.42
2023-02-15T04:58:14.248Z,38.13
2023-02-15T05:00:59.517Z,37.75
2023-02-15T05:03:44.787Z,37.70
2023-02-15T05:06:30.630Z,37.53
2023-02-15T05:09:15.955Z,39.13
2023-02-15T05:12:01.266Z,38.92
2023-02-15T05:14:46.168Z,37.30
2023-02-15T05:17:31.136Z,37.50
2023-02-15T05:20:16.605Z,36.58
2023-02-15T05:23:01.483Z,38.17
2023-02-15T05:26:09.932Z,34.83
2023-02-15T05:28:55.182Z,37.42
2023-02-15T05:31:40.687Z,38.15
2023-02-15T05:34:26.160Z,36.95
2023-02-15T05:37:11.337Z,36.33
2023-02-15T05:39:56.509Z,37.38
2023-02-15T05:42:41.366Z,38.22
2023-02-15T05:45:26.633Z,36.03
2023-02-15T05:48:11.635Z,36.85
2023-02-15T05:51:10.186Z,37.08
2023-02-15T05:53:55.169Z,37.22
2023-02-15T05:56:40.262Z,37.55
2023-02-15T05:59:25.293Z,37.88
2023-02-15T06:02:10.392Z,38.90
2023-02-15T06:04:55.456Z,36.45
2023-02-15T06:07:43.364Z,36.33
2023-02-15T06:10:28.325Z,33.55
2023-02-15T06:13:13.177Z,34.72
2023-02-15T06:15:58.222Z,33.97
2023-02-15T06:18:43.858Z,33.65
2023-02-15T06:21:29.481Z,32.83
2023-02-15T06:24:14.618Z,32.17
2023-02-15T06:26:59.930Z,33.47
2023-02-15T06:29:44.795Z,32.65
2023-02-15T06:32:29.933Z,33.65
2023-02-15T06:35:15.029Z,33.38
2023-02-15T06:38:00.350Z,34.28
2023-02-15T06:40:45.707Z,35.50
2023-02-15T06:43:30.621Z,33.90
2023-02-15T06:46:15.738Z,35.15
2023-02-15T06:49:00.988Z,36.88
2023-02-15T06:51:46.317Z,35.25
2023-02-15T06:54:31.413Z,35.53
2023-02-15T06:57:16.587Z,33.83
2023-02-15T07:00:02.194Z,34.97
2023-02-15T07:02:47.376Z,33.70
2023-02-15T07:05:35.131Z,34.92
2023-02-15T07:08:28.019Z,34.83
2023-02-15T07:11:31.625Z,34.33
2023-02-15T07:14:16.724Z,33.88
2023-02-15T07:17:02.001Z,34.22
2023-02-15T07:19:47.239Z,33.28
2023-02-15T07:22:32.232Z,33.50
2023-02-15T07:25:18.285Z,33.00
2023-02-15T07:28:04.798Z,33.50
2023-02-15T07:30:50.100Z,35.58
2023-02-15T07:33:35.864Z,34.13
2023-02-15T07:36:20.836Z,35.33
2023-02-15T07:39:05.897Z,34.53
2023-02-15T07:41:51.034Z,35.00
2023-02-15T07:44:36.076Z,35.17
2023-02-15T07:47:20.953Z,36.42
2023-02-15T07:50:06.618Z,37.58
2023-02-15T07:52:52.161Z,39.83
2023-02-15T07:55:37.300Z,37.45
2023-02-15T07:58:42.396Z,36.25
2023-02-15T08:01:32.124Z,36.42
2023-02-15T08:07:03.848Z,49.15
2023-02-15T08:09:48.948Z,43.30
2023-02-15T08:12:34.126Z,43.15
2023-02-15T08:15:19.538Z,41.13
2023-02-15T08:18:04.506Z,42.35
2023-02-15T08:20:50.906Z,41.70
2023-02-15T08:23:36.140Z,41.40
2023-02-15T08:26:22.383Z,42.30
2023-02-15T08:29:08.957Z,40.47
2023-02-15T08:31:59.674Z,40.30
2023-02-15T08:34:44.898Z,40.72
2023-02-15T08:37:30.208Z,47.00
2023-02-15T08:40:15.508Z,49.40
2023-02-15T08:43:00.746Z,45.45
2023-02-15T08:45:45.665Z,46.05
2023-02-15T08:48:30.559Z,40.75
2023-02-15T08:51:19.142Z,40.03
2023-02-15T08:54:07.003Z,38.40
2023-02-15T08:56:52.305Z,42.70
2023-02-15T08:59:37.605Z,37.35
2023-02-15T09:02:22.724Z,38.25
2023-02-15T09:05:07.847Z,39.10
2023-02-15T09:07:53.135Z,42.67
2023-02-15T09:10:39.528Z,42.55
2023-02-15T09:13:24.593Z,39.83
2023-02-15T09:16:10.806Z,41.78
2023-02-15T09:18:58.439Z,37.65
2023-02-15T09:21:43.292Z,38.92
2023-02-15T09:24:28.304Z,36.92
2023-02-15T09:27:13.381Z,39.10
2023-02-15T09:29:58.626Z,40.38
2023-02-15T09:32:43.563Z,40.35
2023-02-15T09:35:29.349Z,37.60
2023-02-15T09:38:15.401Z,40.63
2023-02-15T09:41:21.653Z,39.95
2023-02-15T09:44:12.631Z,41.88
2023-02-15T09:47:35.368Z,20.00
2023-02-15T09:50:42.391Z,43.63
2023-02-15T09:53:56.085Z,43.33
2023-02-15T09:57:00.282Z,41.38
2023-02-15T10:00:08.598Z,41.53
2023-02-15T10:03:15.681Z,40.63
2023-02-15T10:06:34.295Z,37.72
2023-02-15T10:09:42.863Z,36.67
2023-02-15T10:12:37.064Z,36.67
2023-02-15T10:15:40.692Z,37.33
2023-02-15T10:19:14.834Z,36.45
2023-02-15T10:22:15.644Z,38.15
2023-02-15T10:25:16.104Z,38.63
2023-02-15T10:28:07.473Z,37.25
2023-02-15T10:30:57.625Z,38.47
2023-02-15T10:33:44.382Z,40.80
2023-02-15T10:36:38.613Z,41.10
2023-02-15T10:39:37.113Z,40.70
2023-02-15T10:42:44.250Z,42.22
2023-02-15T10:45:52.437Z,41.80
2023-02-15T10:48:43.392Z,42.28
2023-02-15T10:51:45.191Z,42.60
2023-02-15T10:54:47.007Z,44.35
2023-02-15T10:57:43.999Z,43.42
2023-02-15T11:01:00.477Z,45.28
2023-02-15T11:04:17.361Z,47.03
2023-02-15T11:07:14.622Z,48.63
2023-02-15T11:10:23.312Z,48.20
2023-02-15T11:13:15.186Z,45.40
2023-02-15T11:16:09.226Z,45.40
2023-02-15T11:19:12.467Z,47.80
2023-02-15T11:22:04.767Z,48.53
2023-02-15T11:24:50.418Z,46.47
2023-02-15T11:27:36.118Z,45.42
2023-02-15T11:30:30.570Z,43.90
2023-02-15T11:33:31.822Z,44.28
2023-02-15T11:36:23.597Z,43.00
2023-02-15T11:39:15.418Z,43.90
2023-02-15T11:42:06.752Z,42.80
2023-02-15T11:45:05.909Z,45.17
2023-02-15T11:47:53.860Z,42.78
2023-02-15T11:50:39.782Z,45.10
2023-02-15T11:53:28.617Z,44.60
2023-02-15T11:56:19.077Z,46.22
2023-02-15T11:59:11.663Z,45.65
2023-02-15T12:01:56.917Z,45.03
2023-02-15T12:04:45.634Z,45.10
2023-02-15T12:07:43.085Z,46.97
2023-02-15T12:10:37.281Z,45.33
2023-02-15T12:13:22.726Z,43.08
2023-02-15T12:16:13.647Z,44.50
2023-02-15T12:19:01.840Z,44.35
2023-02-15T12:21:51.033Z,43.05
2023-02-15T12:24:39.274Z,41.03
2023-02-15T12:27:33.148Z,40.90
2023-02-15T12:30:35.105Z,41.30
2023-02-15T12:33:36.438Z,40.97
2023-02-15T12:36:45.405Z,42.97
2023-02-15T12:39:34.025Z,44.38
2023-02-15T12:42:20.560Z,41.67
2023-02-15T12:45:20.949Z,39.97
2023-02-15T12:48:20.797Z,39.05
2023-02-15T12:51:14.572Z,37.15
2023-02-15T12:54:01.955Z,34.65
2023-02-15T12:56:47.005Z,35.40
2023-02-15T12:59:31.955Z,34.65
2023-02-15T13:02:24.385Z,36.30
2023-02-15T13:05:25.494Z,33.33
2023-02-15T13:08:17.675Z,26.55
2023-02-15T13:11:11.978Z,27.08
2023-02-15T13:14:01.018Z,23.88
2023-02-15T13:16:48.595Z,17.88
2023-02-15T13:19:47.444Z,10.97
2023-02-15T13:22:44.216Z,9.73
2023-02-15T13:25:32.927Z,9.45
2023-02-15T13:28:23.552Z,8.88
2023-02-15T13:31:18.355Z,9.32
2023-02-15T13:34:26.623Z,10.05
2023-02-15T13:37:31.777Z,11.02
2023-02-15T13:40:24.205Z,11.05
2023-02-15T13:43:37.008Z,10.48
2023-02-15T13:46:28.601Z,9.60
2023-02-15T13:49:38.530Z,9.98
2023-02-15T13:52:25.477Z,10.45
2023-02-15T13:55:32.764Z,9.30
2023-02-15T13:58:17.813Z,9.93
2023-02-15T14:01:34.170Z,9.65
2023-02-15T14:04:25.599Z,9.73
2023-02-15T14:07:19.128Z,10.20
2023-02-15T14:10:04.100Z,8.00
2023-02-15T14:13:20.072Z,8.02
2023-02-15T14:16:11.582Z,7.30
2023-02-15T14:19:11.848Z,7.05
2023-02-15T14:21:56.626Z,7.60
2023-02-15T14:24:48.972Z,7.35
2023-02-15T14:28:01.725Z,7.50
2023-02-15T14:30:50.471Z,7.10
2023-02-15T14:33:41.594Z,6.95
2023-02-15T14:36:30.839Z,6.50
2023-02-15T14:40:03.379Z,6.68
2023-02-15T14:43:03.341Z,6.70
2023-02-15T14:45:56.848Z,6.45
2023-02-15T14:48:54.410Z,6.50
2023-02-15T14:51:48.664Z,6.22
2023-02-15T14:54:36.489Z,6.88
2023-02-15T14:57:24.730Z,6.85
2023-02-15T15:00:40.321Z,5.70
2023-02-15T15:03:26.202Z,5.60
2023-02-15T15:06:27.330Z,7.15
2023-02-15T15:09:25.743Z,6.05
2023-02-15T15:12:23.108Z,5.65
2023-02-15T15:15:13.198Z,5.93
2023-02-15T15:18:09.590Z,5.10
2023-02-15T15:20:54.407Z,5.75
2023-02-15T15:23:46.156Z,6.28
2023-02-15T15:26:41.638Z,6.13
2023-02-15T15:29:42.425Z,6.17
2023-02-15T15:32:32.578Z,6.55
2023-02-15T15:35:23.747Z,6.13
2023-02-15T15:38:36.482Z,6.65
2023-02-15T15:41:40.628Z,6.25
2023-02-15T15:44:50.752Z,6.32
2023-02-15T15:47:51.246Z,6.30
2023-02-15T15:50:41.819Z,4.95
2023-02-15T15:53:30.276Z,5.33
2023-02-15T15:56:20.596Z,5.95
2023-02-15T15:59:12.700Z,6.45
2023-02-15T16:02:06.190Z,6.25
2023-02-15T16:04:51.298Z,6.13
2023-02-15T16:07:36.538Z,6.38
2023-02-15T16:10:24.858Z,6.32
2023-02-15T16:13:15.366Z,6.13
2023-02-15T16:16:00.695Z,6.45
2023-02-15T16:18:47.262Z,6.03
2023-02-15T16:21:36.474Z,7.03
2023-02-15T16:24:40.993Z,6.55
2023-02-15T16:27:38.113Z,6.88
2023-02-15T16:30:30.975Z,6.15
2023-02-15T16:33:17.825Z,6.80
2023-02-15T16:36:08.703Z,6.93
2023-02-15T16:38:53.578Z,7.50
2023-02-15T16:41:39.068Z,7.60
2023-02-15T16:44:24.337Z,7.28
2023-02-15T16:47:31.182Z,7.93
2023-02-15T16:50:33.096Z,7.47
2023-02-15T16:53:23.555Z,7.28
2023-02-15T16:56:09.805Z,6.97
2023-02-15T16:58:56.435Z,7.30
2023-02-15T17:01:45.786Z,7.03
2023-02-15T17:04:32.549Z,7.28
2023-02-15T17:07:17.635Z,7.25
2023-02-15T17:10:02.425Z,5.53
2023-02-15T17:12:56.249Z,6.70
2023-02-15T17:16:06.179Z,7.50
2023-02-15T17:18:53.261Z,7.85
2023-02-15T17:21:43.625Z,7.55
2023-02-15T17:27:25.867Z,8.27
2023-02-15T17:30:29.025Z,8.89
2023-02-15T17:33:22.432Z,8.48
2023-02-15T17:36:09.695Z,8.25
2023-02-15T17:38:57.741Z,9.15
2023-02-15T17:41:43.009Z,9.10
2023-02-15T17:44:28.240Z,8.65
2023-02-15T17:47:22.870Z,9.57
2023-02-15T17:50:08.969Z,9.23
2023-02-15T17:52:56.636Z,10.05
2023-02-15T17:55:43.014Z,10.98
2023-02-15T17:58:27.826Z,11.63
2023-02-15T18:01:37.224Z,11.23
2023-02-15T18:04:42.029Z,10.77
2023-02-15T18:07:45.796Z,10.32
2023-02-15T18:10:49.660Z,8.93
2023-02-15T18:13:34.992Z,8.68
2023-02-15T18:16:24.578Z,9.57
2023-02-15T18:19:15.408Z,9.65
2023-02-15T18:22:00.648Z,9.07
2023-02-15T18:24:47.642Z,9.90
2023-02-15T18:27:32.668Z,10.35
2023-02-15T18:30:20.871Z,11.43
2023-02-15T18:33:06.008Z,11.13
2023-02-15T18:35:51.473Z,11.73
2023-02-15T18:38:36.717Z,11.88
2023-02-15T18:41:23.017Z,12.13
2023-02-15T18:44:14.006Z,12.30
2023-02-15T18:46:59.443Z,12.65
2023-02-15T18:49:44.582Z,12.88
2023-02-15T18:52:34.060Z,14.13
2023-02-15T18:55:22.860Z,14.50
2023-02-15T18:58:16.070Z,13.98
2023-02-15T19:01:01.319Z,14.27
2023-02-15T19:03:48.212Z,14.10
2023-02-15T19:06:33.488Z,14.23
2023-02-15T19:09:21.353Z,14.32
2023-02-15T19:12:12.607Z,14.80
2023-02-15T19:14:57.786Z,15.13
2023-02-15T19:17:43.146Z,14.82
2023-02-15T19:20:33.258Z,14.70
2023-02-15T19:26:06.412Z,14.77
2023-02-15T19:28:51.858Z,14.77
2023-02-15T19:31:36.942Z,14.50
2023-02-15T19:34:22.346Z,14.45
2023-02-15T19:37:08.605Z,14.82
2023-02-15T19:39:54.466Z,14.00
2023-02-15T19:42:39.599Z,15.75
2023-02-15T19:45:31.121Z,14.80
2023-02-15T19:48:16.704Z,14.50
2023-02-15T19:51:03.576Z,14.85
2023-02-15T19:53:49.466Z,15.95
2023-02-15T19:56:34.716Z,15.32
2023-02-15T19:59:38.683Z,16.80
2023-02-15T20:02:23.818Z,16.58
2023-02-15T20:05:09.364Z,15.25
2023-02-15T20:07:55.542Z,15.38
2023-02-15T20:10:41.804Z,19.15
2023-02-15T20:13:28.722Z,16.58
2023-02-15T20:16:13.502Z,15.30
2023-02-15T20:18:58.426Z,15.88
2023-02-15T20:21:46.853Z,15.35
2023-02-15T20:24:32.883Z,15.55
2023-02-15T20:27:19.694Z,15.68
2023-02-15T20:30:13.902Z,16.88
2023-02-15T20:33:05.779Z,16.58
2023-02-15T20:35:51.709Z,16.98
2023-02-15T20:38:37.870Z,17.20
2023-02-15T20:41:46.926Z,17.58
2023-02-15T20:44:34.448Z,18.08
2023-02-15T20:47:19.359Z,17.65
2023-02-15T20:50:04.525Z,18.50
2023-02-15T20:52:51.297Z,20.05
2023-02-15T20:55:37.061Z,19.63
2023-02-15T20:58:27.003Z,19.05
2023-02-15T21:01:13.402Z,20.05
2023-02-15T21:03:58.764Z,19.38
2023-02-15T21:06:43.881Z,19.58
2023-02-15T21:09:30.993Z,18.27
2023-02-15T21:12:18.797Z,21.70
2023-02-15T21:15:25.361Z,20.48
2023-02-15T21:18:23.296Z,20.25
2023-02-15T21:21:18.724Z,20.50
2023-02-15T21:24:05.603Z,20.88
2023-02-15T21:26:50.799Z,19.63
2023-02-15T21:29:37.717Z,20.60
2023-02-15T21:32:22.830Z,20.42
2023-02-15T21:35:10.969Z,20.42
2023-02-15T21:37:56.426Z,20.85
2023-02-15T21:40:42.356Z,20.27
2023-02-15T21:43:45.939Z,21.05
2023-02-15T21:46:49.792Z,19.15
2023-02-15T21:49:34.902Z,18.08
2023-02-15T21:52:23.306Z,19.67
2023-02-15T21:55:14.081Z,19.20
2023-02-15T21:58:00.808Z,18.48
2023-02-15T22:00:46.608Z,17.63
2023-02-15T22:03:39.463Z,17.23
2023-02-15T22:06:24.844Z,16.90
2023-02-15T22:09:18.636Z,17.25
2023-02-15T22:12:04.058Z,18.05
2023-02-15T22:14:53.517Z,17.92
2023-02-15T22:17:39.278Z,16.77
2023-02-15T22:20:25.192Z,18.33
2023-02-15T22:23:10.378Z,18.58
2023-02-15T22:25:58.887Z,18.98
2023-02-15T22:28:44.197Z,19.20
2023-02-15T22:31:29.595Z,20.42
2023-02-15T22:34:29.726Z,20.38
2023-02-15T22:37:15.052Z,19.50
2023-02-15T22:39:59.925Z,19.75
2023-02-15T22:42:54.974Z,19.95
2023-02-15T22:45:40.126Z,20.23
2023-02-15T22:48:25.132Z,20.05
2023-02-15T22:51:25.737Z,18.25
2023-02-15T22:54:10.988Z,18.33
2023-02-15T22:56:55.928Z,18.73
2023-02-15T22:59:41.316Z,17.85
2023-02-15T23:02:26.809Z,17.23
2023-02-15T23:05:25.503Z,16.90
2023-02-15T23:08:11.503Z,16.65
2023-02-15T23:10:57.466Z,17.23
2023-02-15T23:13:42.799Z,16.30
2023-02-15T23:16:28.013Z,17.02
2023-02-15T23:19:15.296Z,16.42
2023-02-15T23:22:00.454Z,15.68
2023-02-15T23:24:50.983Z,15.63
2023-02-15T23:27:54.610Z,16.70
2023-02-15T23:30:39.795Z,16.95
2023-02-15T23:33:30.024Z,16.88
2023-02-15T23:36:29.999Z,16.80
2023-02-15T23:39:36.727Z,17.00
2023-02-15T23:42:27.907Z,17.00
2023-02-15T23:45:22.465Z,16.65
2023-02-15T23:48:30.354Z,17.33
2023-02-15T23:51:15.379Z,16.85
2023-02-15T23:54:00.443Z,16.67
2023-02-15T23:56:49.666Z,17.38
2023-02-15T23:59:35.696Z,16.15
